Coppet, Switzerland
Current Conditions -  °F | °C
As of 5:20 PM on Saturday 20 Dec 2014 (Local Time) from LSGG Reporting Station
Few Clouds Few Clouds  
Wind Chill: 48°   Ceiling: Unl
Heat Index: 48°   Visibility: 6mi
Dew Point: 34°   Wind: 3mph
Humidity: 57%   Direction: 260°W
Pressure: 30.39"   Gusts: NA
Location:  46.32°N, 6.19°E
Report Text: LSGG 201620Z 26003KT 220V300 9999 FEW030 09/01 Q1029 NOSIG
Loading
Personal Weather Stations






























Interactive Weather Map New forecast layout! Learn more

10-Day Weather Forecast

Advertisements
Track Severe Weather on mobile